sensor_id;sensor_type;location;lat;lon;timestamp;temperature;humidity
15574;DHT22;7888;46.748;8.102;2023-02-16T00:00:18;9.50;36.80
15574;DHT22;7888;46.748;8.102;2023-02-16T00:02:46;9.40;37.10
15574;DHT22;7888;46.748;8.102;2023-02-16T00:05:26;9.40;36.90
15574;DHT22;7888;46.748;8.102;2023-02-16T00:07:55;9.40;37.20
15574;DHT22;7888;46.748;8.102;2023-02-16T00:10:24;9.40;37.00
15574;DHT22;7888;46.748;8.102;2023-02-16T00:12:52;9.30;37.10
15574;DHT22;7888;46.748;8.102;2023-02-16T00:15:36;9.30;37.00
15574;DHT22;7888;46.748;8.102;2023-02-16T00:18:03;9.30;37.10
15574;DHT22;7888;46.748;8.102;2023-02-16T00:20:36;9.30;37.30
15574;DHT22;7888;46.748;8.102;2023-02-16T00:23:02;9.20;37.30
15574;DHT22;7888;46.748;8.102;2023-02-16T00:25:28;9.20;37.40
15574;DHT22;7888;46.748;8.102;2023-02-16T00:27:54;9.20;37.50
15574;DHT22;7888;46.748;8.102;2023-02-16T00:30:21;9.20;37.50
15574;DHT22;7888;46.748;8.102;2023-02-16T00:32:47;9.10;37.50
15574;DHT22;7888;46.748;8.102;2023-02-16T00:35:20;9.10;37.70
15574;DHT22;7888;46.748;8.102;2023-02-16T00:37:47;9.10;38.00
15574;DHT22;7888;46.748;8.102;2023-02-16T00:40:15;9.10;37.90
15574;DHT22;7888;46.748;8.102;2023-02-16T00:42:43;9.10;37.90
15574;DHT22;7888;46.748;8.102;2023-02-16T00:45:19;9.10;37.80
15574;DHT22;7888;46.748;8.102;2023-02-16T00:47:48;9.10;38.30
15574;DHT22;7888;46.748;8.102;2023-02-16T00:52:43;9.00;38.10
15574;DHT22;7888;46.748;8.102;2023-02-16T01:00:24;9.00;38.20
15574;DHT22;7888;46.748;8.102;2023-02-16T01:02:56;9.00;38.40
15574;DHT22;7888;46.748;8.102;2023-02-16T01:05:25;9.00;38.30
15574;DHT22;7888;46.748;8.102;2023-02-16T01:07:51;9.00;38.10
15574;DHT22;7888;46.748;8.102;2023-02-16T01:10:36;9.00;38.00
15574;DHT22;7888;46.748;8.102;2023-02-16T01:13:44;9.00;38.00
15574;DHT22;7888;46.748;8.102;2023-02-16T01:16:34;8.90;38.50
15574;DHT22;7888;46.748;8.102;2023-02-16T01:19:02;8.90;38.30
15574;DHT22;7888;46.748;8.102;2023-02-16T01:21:29;8.90;38.10
15574;DHT22;7888;46.748;8.102;2023-02-16T01:23:54;8.80;38.10
15574;DHT22;7888;46.748;8.102;2023-02-16T01:26:20;8.80;38.20
15574;DHT22;7888;46.748;8.102;2023-02-16T01:28:47;8.80;38.10
15574;DHT22;7888;46.748;8.102;2023-02-16T01:31:14;8.80;38.00
15574;DHT22;7888;46.748;8.102;2023-02-16T01:33:41;8.70;38.20
15574;DHT22;7888;46.748;8.102;2023-02-16T01:36:22;8.70;38.30
15574;DHT22;7888;46.748;8.102;2023-02-16T01:39:00;8.70;38.60
15574;DHT22;7888;46.748;8.102;2023-02-16T01:41:39;8.70;38.20
15574;DHT22;7888;46.748;8.102;2023-02-16T01:44:30;8.70;38.40
15574;DHT22;7888;46.748;8.102;2023-02-16T01:47:29;8.70;38.40
15574;DHT22;7888;46.748;8.102;2023-02-16T01:53:00;8.70;39.50
15574;DHT22;7888;46.748;8.102;2023-02-16T01:55:35;8.60;38.90
15574;DHT22;7888;46.748;8.102;2023-02-16T01:58:11;8.60;38.70
15574;DHT22;7888;46.748;8.102;2023-02-16T02:03:30;8.60;38.60
15574;DHT22;7888;46.748;8.102;2023-02-16T02:06:21;8.60;39.00
15574;DHT22;7888;46.748;8.102;2023-02-16T02:09:16;8.60;38.80
15574;DHT22;7888;46.748;8.102;2023-02-16T02:12:08;8.60;39.30
15574;DHT22;7888;46.748;8.102;2023-02-16T02:14:41;8.60;38.60
15574;DHT22;7888;46.748;8.102;2023-02-16T02:17:16;8.50;38.50
15574;DHT22;7888;46.748;8.102;2023-02-16T02:19:55;8.50;38.70
15574;DHT22;7888;46.748;8.102;2023-02-16T02:37:43;8.40;39.50
15574;DHT22;7888;46.748;8.102;2023-02-16T02:43:34;8.40;39.00
15574;DHT22;7888;46.748;8.102;2023-02-16T02:46:32;8.40;39.10
15574;DHT22;7888;46.748;8.102;2023-02-16T02:48:59;8.30;39.20
15574;DHT22;7888;46.748;8.102;2023-02-16T02:51:25;8.30;38.70
15574;DHT22;7888;46.748;8.102;2023-02-16T02:54:17;8.30;38.70
15574;DHT22;7888;46.748;8.102;2023-02-16T03:02:59;8.20;38.80
15574;DHT22;7888;46.748;8.102;2023-02-16T03:05:30;8.20;38.80
15574;DHT22;7888;46.748;8.102;2023-02-16T03:08:02;8.20;38.70
15574;DHT22;7888;46.748;8.102;2023-02-16T03:10:42;8.10;38.90
15574;DHT22;7888;46.748;8.102;2023-02-16T03:13:41;8.10;38.90
15574;DHT22;7888;46.748;8.102;2023-02-16T03:19:13;8.10;39.20
15574;DHT22;7888;46.748;8.102;2023-02-16T03:22:00;8.10;39.00
15574;DHT22;7888;46.748;8.102;2023-02-16T03:24:45;8.10;38.90
15574;DHT22;7888;46.748;8.102;2023-02-16T03:27:33;8.00;39.00
15574;DHT22;7888;46.748;8.102;2023-02-16T03:30:23;8.00;39.20
15574;DHT22;7888;46.748;8.102;2023-02-16T03:32:51;8.00;39.10
15574;DHT22;7888;46.748;8.102;2023-02-16T03:35:18;8.00;39.10
15574;DHT22;7888;46.748;8.102;2023-02-16T03:37:45;8.00;39.30
15574;DHT22;7888;46.748;8.102;2023-02-16T03:40:13;7.90;39.50
15574;DHT22;7888;46.748;8.102;2023-02-16T03:42:56;8.00;39.80
15574;DHT22;7888;46.748;8.102;2023-02-16T03:45:27;8.00;39.70
15574;DHT22;7888;46.748;8.102;2023-02-16T03:47:54;7.90;39.50
15574;DHT22;7888;46.748;8.102;2023-02-16T03:50:21;7.90;39.50
15574;DHT22;7888;46.748;8.102;2023-02-16T03:52:47;7.90;39.60
15574;DHT22;7888;46.748;8.102;2023-02-16T03:55:14;7.90;39.50
15574;DHT22;7888;46.748;8.102;2023-02-16T03:57:40;7.90;39.50
15574;DHT22;7888;46.748;8.102;2023-02-16T04:00:06;7.80;39.60
15574;DHT22;7888;46.748;8.102;2023-02-16T04:02:32;7.80;39.80
15574;DHT22;7888;46.748;8.102;2023-02-16T04:04:58;7.80;39.80
15574;DHT22;7888;46.748;8.102;2023-02-16T04:07:24;7.80;39.80
15574;DHT22;7888;46.748;8.102;2023-02-16T04:09:50;7.70;39.80
15574;DHT22;7888;46.748;8.102;2023-02-16T04:12:16;7.70;39.80
15574;DHT22;7888;46.748;8.102;2023-02-16T04:15:00;7.70;39.80
15574;DHT22;7888;46.748;8.102;2023-02-16T04:17:27;7.70;39.80
15574;DHT22;7888;46.748;8.102;2023-02-16T04:19:53;7.60;40.00
15574;DHT22;7888;46.748;8.102;2023-02-16T04:22:19;7.60;39.90
15574;DHT22;7888;46.748;8.102;2023-02-16T04:24:45;7.60;39.80
15574;DHT22;7888;46.748;8.102;2023-02-16T04:27:11;7.60;40.00
15574;DHT22;7888;46.748;8.102;2023-02-16T04:29:36;7.50;40.20
15574;DHT22;7888;46.748;8.102;2023-02-16T04:32:02;7.50;40.20
15574;DHT22;7888;46.748;8.102;2023-02-16T04:34:28;7.50;40.20
15574;DHT22;7888;46.748;8.102;2023-02-16T04:36:54;7.50;40.10
15574;DHT22;7888;46.748;8.102;2023-02-16T04:39:20;7.50;40.10
15574;DHT22;7888;46.748;8.102;2023-02-16T04:41:46;7.50;40.20
15574;DHT22;7888;46.748;8.102;2023-02-16T04:44:12;7.50;40.20
15574;DHT22;7888;46.748;8.102;2023-02-16T04:46:38;7.40;40.10
15574;DHT22;7888;46.748;8.102;2023-02-16T04:49:04;7.50;40.10
15574;DHT22;7888;46.748;8.102;2023-02-16T04:51:29;7.50;40.10
15574;DHT22;7888;46.748;8.102;2023-02-16T04:53:55;7.40;40.10
15574;DHT22;7888;46.748;8.102;2023-02-16T04:56:21;7.50;40.20
15574;DHT22;7888;46.748;8.102;2023-02-16T04:58:47;7.40;40.40
15574;DHT22;7888;46.748;8.102;2023-02-16T05:01:23;7.40;40.20
15574;DHT22;7888;46.748;8.102;2023-02-16T05:03:50;7.50;40.50
15574;DHT22;7888;46.748;8.102;2023-02-16T05:06:16;7.50;40.20
15574;DHT22;7888;46.748;8.102;2023-02-16T05:08:43;7.50;40.20
15574;DHT22;7888;46.748;8.102;2023-02-16T05:11:09;7.50;40.20
15574;DHT22;7888;46.748;8.102;2023-02-16T05:13:56;7.50;40.20
15574;DHT22;7888;46.748;8.102;2023-02-16T05:16:41;7.40;40.20
15574;DHT22;7888;46.748;8.102;2023-02-16T05:19:07;7.40;40.20
15574;DHT22;7888;46.748;8.102;2023-02-16T05:21:33;7.40;40.20
15574;DHT22;7888;46.748;8.102;2023-02-16T05:24:08;7.50;40.30
15574;DHT22;7888;46.748;8.102;2023-02-16T05:26:36;7.40;40.80
15574;DHT22;7888;46.748;8.102;2023-02-16T05:29:04;7.40;40.50
15574;DHT22;7888;46.748;8.102;2023-02-16T05:31:30;7.40;40.50
15574;DHT22;7888;46.748;8.102;2023-02-16T05:33:56;7.50;40.50
15574;DHT22;7888;46.748;8.102;2023-02-16T05:36:23;7.40;40.60
15574;DHT22;7888;46.748;8.102;2023-02-16T05:38:49;7.50;40.60
15574;DHT22;7888;46.748;8.102;2023-02-16T05:41:15;7.40;40.50
15574;DHT22;7888;46.748;8.102;2023-02-16T05:43:55;7.50;40.60
15574;DHT22;7888;46.748;8.102;2023-02-16T05:46:24;7.40;40.90
15574;DHT22;7888;46.748;8.102;2023-02-16T05:48:51;7.40;40.90
15574;DHT22;7888;46.748;8.102;2023-02-16T05:51:17;7.40;40.90
15574;DHT22;7888;46.748;8.102;2023-02-16T05:53:44;7.40;40.90
15574;DHT22;7888;46.748;8.102;2023-02-16T05:56:10;7.40;41.00
15574;DHT22;7888;46.748;8.102;2023-02-16T05:58:36;7.40;41.00
15574;DHT22;7888;46.748;8.102;2023-02-16T06:01:03;7.40;41.00
15574;DHT22;7888;46.748;8.102;2023-02-16T06:03:29;7.30;41.00
15574;DHT22;7888;46.748;8.102;2023-02-16T06:05:57;7.30;41.10
15574;DHT22;7888;46.748;8.102;2023-02-16T06:08:25;7.30;41.20
15574;DHT22;7888;46.748;8.102;2023-02-16T06:10:53;7.30;41.20
15574;DHT22;7888;46.748;8.102;2023-02-16T06:13:20;7.30;41.30
15574;DHT22;7888;46.748;8.102;2023-02-16T06:15:49;7.30;41.30
15574;DHT22;7888;46.748;8.102;2023-02-16T06:18:16;7.30;41.90
15574;DHT22;7888;46.748;8.102;2023-02-16T06:20:42;7.20;41.30
15574;DHT22;7888;46.748;8.102;2023-02-16T06:23:10;7.20;41.30
15574;DHT22;7888;46.748;8.102;2023-02-16T06:25:37;7.20;41.30
15574;DHT22;7888;46.748;8.102;2023-02-16T06:28:05;7.20;41.30
15574;DHT22;7888;46.748;8.102;2023-02-16T06:30:31;7.20;41.40
15574;DHT22;7888;46.748;8.102;2023-02-16T06:32:57;7.20;41.30
15574;DHT22;7888;46.748;8.102;2023-02-16T06:35:23;7.10;41.20
15574;DHT22;7888;46.748;8.102;2023-02-16T06:37:49;7.10;41.20
15574;DHT22;7888;46.748;8.102;2023-02-16T06:40:15;7.10;41.20
15574;DHT22;7888;46.748;8.102;2023-02-16T06:42:42;7.10;41.30
15574;DHT22;7888;46.748;8.102;2023-02-16T06:45:09;7.10;41.40
15574;DHT22;7888;46.748;8.102;2023-02-16T06:47:36;7.10;41.20
15574;DHT22;7888;46.748;8.102;2023-02-16T06:50:04;7.10;41.20
15574;DHT22;7888;46.748;8.102;2023-02-16T06:52:31;7.10;41.50
15574;DHT22;7888;46.748;8.102;2023-02-16T06:54:58;7.10;41.50
15574;DHT22;7888;46.748;8.102;2023-02-16T06:57:23;7.10;41.50
15574;DHT22;7888;46.748;8.102;2023-02-16T06:59:49;7.10;41.50
15574;DHT22;7888;46.748;8.102;2023-02-16T07:02:15;7.10;41.50
15574;DHT22;7888;46.748;8.102;2023-02-16T07:04:41;7.10;42.10
15574;DHT22;7888;46.748;8.102;2023-02-16T07:07:07;7.10;41.70
15574;DHT22;7888;46.748;8.102;2023-02-16T07:09:35;7.10;41.60
15574;DHT22;7888;46.748;8.102;2023-02-16T07:12:01;7.10;41.70
15574;DHT22;7888;46.748;8.102;2023-02-16T07:14:29;7.10;41.50
15574;DHT22;7888;46.748;8.102;2023-02-16T07:16:56;7.10;41.50
15574;DHT22;7888;46.748;8.102;2023-02-16T07:19:24;7.10;41.50
15574;DHT22;7888;46.748;8.102;2023-02-16T07:21:50;7.10;41.70
15574;DHT22;7888;46.748;8.102;2023-02-16T07:24:16;7.10;41.80
15574;DHT22;7888;46.748;8.102;2023-02-16T07:26:42;7.10;42.00
15574;DHT22;7888;46.748;8.102;2023-02-16T07:29:08;7.10;42.10
15574;DHT22;7888;46.748;8.102;2023-02-16T07:31:34;7.10;42.20
15574;DHT22;7888;46.748;8.102;2023-02-16T07:33:59;7.10;42.50
15574;DHT22;7888;46.748;8.102;2023-02-16T07:36:25;7.20;42.70
15574;DHT22;7888;46.748;8.102;2023-02-16T07:38:51;7.30;42.90
15574;DHT22;7888;46.748;8.102;2023-02-16T07:41:18;7.30;43.00
15574;DHT22;7888;46.748;8.102;2023-02-16T07:43:43;7.40;42.80
15574;DHT22;7888;46.748;8.102;2023-02-16T07:46:09;7.50;42.80
15574;DHT22;7888;46.748;8.102;2023-02-16T07:48:35;7.60;42.80
15574;DHT22;7888;46.748;8.102;2023-02-16T07:51:01;7.70;42.80
15574;DHT22;7888;46.748;8.102;2023-02-16T07:53:27;7.70;42.70
15574;DHT22;7888;46.748;8.102;2023-02-16T07:55:53;7.80;42.60
15574;DHT22;7888;46.748;8.102;2023-02-16T07:58:18;7.90;42.60
15574;DHT22;7888;46.748;8.102;2023-02-16T08:01:04;8.00;42.70
15574;DHT22;7888;46.748;8.102;2023-02-16T08:03:32;8.00;42.50
15574;DHT22;7888;46.748;8.102;2023-02-16T08:06:02;8.00;42.20
15574;DHT22;7888;46.748;8.102;2023-02-16T08:08:28;8.10;42.50
15574;DHT22;7888;46.748;8.102;2023-02-16T08:10:55;8.10;42.40
15574;DHT22;7888;46.748;8.102;2023-02-16T08:13:21;8.10;42.40
15574;DHT22;7888;46.748;8.102;2023-02-16T08:15:47;8.20;42.60
15574;DHT22;7888;46.748;8.102;2023-02-16T08:18:12;8.20;42.80
15574;DHT22;7888;46.748;8.102;2023-02-16T08:20:38;8.30;43.20
15574;DHT22;7888;46.748;8.102;2023-02-16T08:23:04;8.40;43.10
15574;DHT22;7888;46.748;8.102;2023-02-16T08:25:32;8.50;42.80
15574;DHT22;7888;46.748;8.102;2023-02-16T08:27:59;8.60;42.90
15574;DHT22;7888;46.748;8.102;2023-02-16T08:30:25;8.70;42.70
15574;DHT22;7888;46.748;8.102;2023-02-16T08:32:50;8.80;42.80
15574;DHT22;7888;46.748;8.102;2023-02-16T08:35:17;8.90;42.90
15574;DHT22;7888;46.748;8.102;2023-02-16T08:37:44;9.00;42.80
15574;DHT22;7888;46.748;8.102;2023-02-16T08:40:11;9.20;42.70
15574;DHT22;7888;46.748;8.102;2023-02-16T08:42:37;9.40;42.70
15574;DHT22;7888;46.748;8.102;2023-02-16T08:45:04;9.60;42.90
15574;DHT22;7888;46.748;8.102;2023-02-16T08:47:31;9.80;43.00
15574;DHT22;7888;46.748;8.102;2023-02-16T08:49:57;10.00;42.80
15574;DHT22;7888;46.748;8.102;2023-02-16T08:52:23;10.20;42.70
15574;DHT22;7888;46.748;8.102;2023-02-16T08:54:49;10.40;42.60
15574;DHT22;7888;46.748;8.102;2023-02-16T08:57:14;10.60;42.40
15574;DHT22;7888;46.748;8.102;2023-02-16T08:59:41;10.70;42.30
15574;DHT22;7888;46.748;8.102;2023-02-16T09:02:06;10.80;42.10
15574;DHT22;7888;46.748;8.102;2023-02-16T09:04:34;11.00;42.00
15574;DHT22;7888;46.748;8.102;2023-02-16T09:07:02;11.10;41.90
15574;DHT22;7888;46.748;8.102;2023-02-16T09:09:28;11.30;41.90
15574;DHT22;7888;46.748;8.102;2023-02-16T09:11:54;11.40;41.70
15574;DHT22;7888;46.748;8.102;2023-02-16T09:14:22;11.60;41.70
15574;DHT22;7888;46.748;8.102;2023-02-16T09:16:48;11.70;42.00
15574;DHT22;7888;46.748;8.102;2023-02-16T09:19:15;11.90;41.10
15574;DHT22;7888;46.748;8.102;2023-02-16T09:21:43;12.00;40.80
15574;DHT22;7888;46.748;8.102;2023-02-16T09:24:11;12.10;40.80
15574;DHT22;7888;46.748;8.102;2023-02-16T09:26:38;12.30;41.00
15574;DHT22;7888;46.748;8.102;2023-02-16T09:29:07;12.50;40.90
15574;DHT22;7888;46.748;8.102;2023-02-16T09:31:35;12.70;40.70
15574;DHT22;7888;46.748;8.102;2023-02-16T09:34:04;12.90;40.70
15574;DHT22;7888;46.748;8.102;2023-02-16T09:36:32;13.00;40.50
15574;DHT22;7888;46.748;8.102;2023-02-16T09:38:59;13.10;40.10
15574;DHT22;7888;46.748;8.102;2023-02-16T09:44:08;13.20;39.10
15574;DHT22;7888;46.748;8.102;2023-02-16T09:46:57;13.20;39.10
15574;DHT22;7888;46.748;8.102;2023-02-16T09:49:38;13.30;38.90
15574;DHT22;7888;46.748;8.102;2023-02-16T09:52:22;13.30;38.50
15574;DHT22;7888;46.748;8.102;2023-02-16T09:54:57;13.30;38.70
15574;DHT22;7888;46.748;8.102;2023-02-16T10:08:41;14.20;38.80
15574;DHT22;7888;46.748;8.102;2023-02-16T10:11:11;14.50;38.90
15574;DHT22;7888;46.748;8.102;2023-02-16T10:20:39;15.10;37.70
15574;DHT22;7888;46.748;8.102;2023-02-16T10:26:13;15.20;37.40
15574;DHT22;7888;46.748;8.102;2023-02-16T10:28:48;15.30;37.50
15574;DHT22;7888;46.748;8.102;2023-02-16T10:31:38;15.40;37.50
15574;DHT22;7888;46.748;8.102;2023-02-16T10:40:56;15.70;36.50
15574;DHT22;7888;46.748;8.102;2023-02-16T10:43:49;15.80;36.80
15574;DHT22;7888;46.748;8.102;2023-02-16T10:46:29;16.00;36.70
15574;DHT22;7888;46.748;8.102;2023-02-16T10:48:58;16.10;36.10
15574;DHT22;7888;46.748;8.102;2023-02-16T10:51:31;16.20;36.30
15574;DHT22;7888;46.748;8.102;2023-02-16T10:54:04;16.30;35.80
15574;DHT22;7888;46.748;8.102;2023-02-16T10:59:20;16.50;35.50
15574;DHT22;7888;46.748;8.102;2023-02-16T11:02:02;16.50;35.30
15574;DHT22;7888;46.748;8.102;2023-02-16T11:04:43;16.60;35.10
15574;DHT22;7888;46.748;8.102;2023-02-16T11:07:13;16.80;35.30
15574;DHT22;7888;46.748;8.102;2023-02-16T11:09:43;16.90;35.10
15574;DHT22;7888;46.748;8.102;2023-02-16T11:12:39;17.00;34.90
15574;DHT22;7888;46.748;8.102;2023-02-16T11:17:52;17.40;34.30
15574;DHT22;7888;46.748;8.102;2023-02-16T11:20:30;17.70;34.40
15574;DHT22;7888;46.748;8.102;2023-02-16T11:28:38;18.40;34.30
15574;DHT22;7888;46.748;8.102;2023-02-16T11:33:59;18.90;33.50
15574;DHT22;7888;46.748;8.102;2023-02-16T11:36:43;19.00;33.50
15574;DHT22;7888;46.748;8.102;2023-02-16T11:39:25;19.10;32.80
15574;DHT22;7888;46.748;8.102;2023-02-16T11:41:58;19.20;32.40
15574;DHT22;7888;46.748;8.102;2023-02-16T11:47:19;19.40;32.30
15574;DHT22;7888;46.748;8.102;2023-02-16T11:50:16;19.60;32.30
15574;DHT22;7888;46.748;8.102;2023-02-16T11:52:50;19.90;31.50
15574;DHT22;7888;46.748;8.102;2023-02-16T11:55:42;20.10;32.00
15574;DHT22;7888;46.748;8.102;2023-02-16T11:58:33;20.40;31.60
15574;DHT22;7888;46.748;8.102;2023-02-16T12:06:59;21.00;30.20
15574;DHT22;7888;46.748;8.102;2023-02-16T12:12:41;21.30;30.20
15574;DHT22;7888;46.748;8.102;2023-02-16T12:15:26;21.30;29.70
15574;DHT22;7888;46.748;8.102;2023-02-16T12:21:01;21.40;29.50
15574;DHT22;7888;46.748;8.102;2023-02-16T12:41:27;22.40;29.00
15574;DHT22;7888;46.748;8.102;2023-02-16T12:44:19;22.60;28.80
15574;DHT22;7888;46.748;8.102;2023-02-16T12:47:03;22.80;28.90
15574;DHT22;7888;46.748;8.102;2023-02-16T12:49:52;22.90;28.40
15574;DHT22;7888;46.748;8.102;2023-02-16T12:52:34;22.90;28.50
15574;DHT22;7888;46.748;8.102;2023-02-16T12:55:18;23.00;28.30
15574;DHT22;7888;46.748;8.102;2023-02-16T12:58:15;23.20;28.90
15574;DHT22;7888;46.748;8.102;2023-02-16T13:00:50;23.40;28.20
15574;DHT22;7888;46.748;8.102;2023-02-16T13:03:39;23.70;28.20
15574;DHT22;7888;46.748;8.102;2023-02-16T13:11:35;24.10;26.70
15574;DHT22;7888;46.748;8.102;2023-02-16T13:14:34;24.00;26.20
15574;DHT22;7888;46.748;8.102;2023-02-16T13:17:07;23.90;26.10
15574;DHT22;7888;46.748;8.102;2023-02-16T13:19:45;23.80;26.30
15574;DHT22;7888;46.748;8.102;2023-02-16T13:40:18;23.40;26.40
15574;DHT22;7888;46.748;8.102;2023-02-16T13:48:53;23.40;26.20
15574;DHT22;7888;46.748;8.102;2023-02-16T13:51:21;23.30;26.60
15574;DHT22;7888;46.748;8.102;2023-02-16T13:53:55;23.30;26.70
15574;DHT22;7888;46.748;8.102;2023-02-16T13:59:46;23.20;26.00
15574;DHT22;7888;46.748;8.102;2023-02-16T14:01:54;23.20;26.20
15574;DHT22;7888;46.748;8.102;2023-02-16T14:09:45;23.20;25.80
15574;DHT22;7888;46.748;8.102;2023-02-16T14:12:28;23.20;25.80
15574;DHT22;7888;46.748;8.102;2023-02-16T14:15:00;23.20;26.00
15574;DHT22;7888;46.748;8.102;2023-02-16T14:17:33;23.20;26.30
15574;DHT22;7888;46.748;8.102;2023-02-16T14:35:38;23.70;25.80
15574;DHT22;7888;46.748;8.102;2023-02-16T14:38:27;23.80;25.90
15574;DHT22;7888;46.748;8.102;2023-02-16T14:40:58;23.90;25.20
15574;DHT22;7888;46.748;8.102;2023-02-16T14:43:46;24.10;25.60
15574;DHT22;7888;46.748;8.102;2023-02-16T15:00:51;25.00;24.80
15574;DHT22;7888;46.748;8.102;2023-02-16T15:03:24;25.20;24.50
15574;DHT22;7888;46.748;8.102;2023-02-16T15:05:57;25.30;24.80
15574;DHT22;7888;46.748;8.102;2023-02-16T15:08:29;25.30;24.70
15574;DHT22;7888;46.748;8.102;2023-02-16T15:11:31;25.40;24.60
15574;DHT22;7888;46.748;8.102;2023-02-16T15:14:13;25.40;24.00
15574;DHT22;7888;46.748;8.102;2023-02-16T15:16:40;25.50;24.10
15574;DHT22;7888;46.748;8.102;2023-02-16T15:19:10;25.50;24.30
15574;DHT22;7888;46.748;8.102;2023-02-16T15:21:41;25.50;24.20
15574;DHT22;7888;46.748;8.102;2023-02-16T15:24:20;25.60;24.20
15574;DHT22;7888;46.748;8.102;2023-02-16T15:26:54;25.50;23.70
15574;DHT22;7888;46.748;8.102;2023-02-16T15:29:24;25.50;23.70
15574;DHT22;7888;46.748;8.102;2023-02-16T15:31:52;25.50;23.70
15574;DHT22;7888;46.748;8.102;2023-02-16T15:34:30;25.40;23.80
15574;DHT22;7888;46.748;8.102;2023-02-16T15:37:00;25.40;23.40
15574;DHT22;7888;46.748;8.102;2023-02-16T15:39:43;25.50;23.70
15574;DHT22;7888;46.748;8.102;2023-02-16T15:42:22;25.50;23.70
15574;DHT22;7888;46.748;8.102;2023-02-16T15:44:51;25.40;23.20
15574;DHT22;7888;46.748;8.102;2023-02-16T15:47:24;25.30;23.30
15574;DHT22;7888;46.748;8.102;2023-02-16T15:49:52;25.10;22.80
15574;DHT22;7888;46.748;8.102;2023-02-16T15:52:21;24.90;23.10
15574;DHT22;7888;46.748;8.102;2023-02-16T15:54:54;24.60;23.30
15574;DHT22;7888;46.748;8.102;2023-02-16T15:57:33;24.30;23.00
15574;DHT22;7888;46.748;8.102;2023-02-16T16:00:11;24.00;23.00
15574;DHT22;7888;46.748;8.102;2023-02-16T16:02:52;23.70;23.50
15574;DHT22;7888;46.748;8.102;2023-02-16T16:05:23;23.40;23.50
15574;DHT22;7888;46.748;8.102;2023-02-16T16:07:51;23.20;23.80
15574;DHT22;7888;46.748;8.102;2023-02-16T16:10:29;23.00;24.00
15574;DHT22;7888;46.748;8.102;2023-02-16T16:13:18;22.80;23.80
15574;DHT22;7888;46.748;8.102;2023-02-16T16:15:48;22.60;24.00
15574;DHT22;7888;46.748;8.102;2023-02-16T16:18:35;22.40;24.00
15574;DHT22;7888;46.748;8.102;2023-02-16T16:21:26;22.10;23.60
15574;DHT22;7888;46.748;8.102;2023-02-16T16:24:06;21.90;23.40
15574;DHT22;7888;46.748;8.102;2023-02-16T16:26:54;21.70;23.70
15574;DHT22;7888;46.748;8.102;2023-02-16T16:29:49;21.30;23.70
15574;DHT22;7888;46.748;8.102;2023-02-16T16:34:50;20.90;24.30
15574;DHT22;7888;46.748;8.102;2023-02-16T16:37:32;20.70;24.30
15574;DHT22;7888;46.748;8.102;2023-02-16T16:40:21;20.40;24.40
15574;DHT22;7888;46.748;8.102;2023-02-16T16:43:16;20.30;24.60
15574;DHT22;7888;46.748;8.102;2023-02-16T16:45:46;20.10;24.80
15574;DHT22;7888;46.748;8.102;2023-02-16T16:48:30;19.90;25.10
15574;DHT22;7888;46.748;8.102;2023-02-16T16:53:57;19.60;25.40
15574;DHT22;7888;46.748;8.102;2023-02-16T16:56:26;19.40;25.70
15574;DHT22;7888;46.748;8.102;2023-02-16T16:58:55;19.30;25.90
15574;DHT22;7888;46.748;8.102;2023-02-16T17:01:23;19.10;26.10
15574;DHT22;7888;46.748;8.102;2023-02-16T17:03:51;19.00;26.00
15574;DHT22;7888;46.748;8.102;2023-02-16T17:06:17;18.90;25.90
15574;DHT22;7888;46.748;8.102;2023-02-16T17:08:44;18.80;26.00
15574;DHT22;7888;46.748;8.102;2023-02-16T17:13:59;18.60;26.20
15574;DHT22;7888;46.748;8.102;2023-02-16T17:16:36;18.50;26.40
15574;DHT22;7888;46.748;8.102;2023-02-16T17:19:05;18.40;26.60
15574;DHT22;7888;46.748;8.102;2023-02-16T17:21:31;18.30;26.70
15574;DHT22;7888;46.748;8.102;2023-02-16T17:23:56;18.10;26.70
15574;DHT22;7888;46.748;8.102;2023-02-16T17:26:22;18.00;27.30
15574;DHT22;7888;46.748;8.102;2023-02-16T17:28:48;17.90;26.80
15574;DHT22;7888;46.748;8.102;2023-02-16T17:31:15;17.80;26.80
15574;DHT22;7888;46.748;8.102;2023-02-16T17:33:41;17.70;27.00
15574;DHT22;7888;46.748;8.102;2023-02-16T17:36:07;17.60;27.20
15574;DHT22;7888;46.748;8.102;2023-02-16T17:38:36;17.50;27.20
15574;DHT22;7888;46.748;8.102;2023-02-16T17:41:02;17.40;27.40
15574;DHT22;7888;46.748;8.102;2023-02-16T17:43:28;17.30;27.50
15574;DHT22;7888;46.748;8.102;2023-02-16T17:45:55;17.20;27.40
15574;DHT22;7888;46.748;8.102;2023-02-16T17:48:28;17.10;27.40
15574;DHT22;7888;46.748;8.102;2023-02-16T17:50:58;17.00;27.50
15574;DHT22;7888;46.748;8.102;2023-02-16T17:53:25;16.90;27.50
15574;DHT22;7888;46.748;8.102;2023-02-16T17:55:54;16.80;27.60
15574;DHT22;7888;46.748;8.102;2023-02-16T17:58:22;16.70;28.20
15574;DHT22;7888;46.748;8.102;2023-02-16T18:00:49;16.60;27.90
15574;DHT22;7888;46.748;8.102;2023-02-16T18:03:15;16.50;28.00
15574;DHT22;7888;46.748;8.102;2023-02-16T18:05:42;16.40;27.90
15574;DHT22;7888;46.748;8.102;2023-02-16T18:08:10;16.30;27.90
15574;DHT22;7888;46.748;8.102;2023-02-16T18:10:42;16.10;28.00
15574;DHT22;7888;46.748;8.102;2023-02-16T18:13:11;16.00;28.50
15574;DHT22;7888;46.748;8.102;2023-02-16T18:15:39;15.90;28.10
15574;DHT22;7888;46.748;8.102;2023-02-16T18:18:07;15.80;28.30
15574;DHT22;7888;46.748;8.102;2023-02-16T18:20:33;15.70;28.40
15574;DHT22;7888;46.748;8.102;2023-02-16T18:22:59;15.60;28.50
15574;DHT22;7888;46.748;8.102;2023-02-16T18:25:25;15.50;28.50
15574;DHT22;7888;46.748;8.102;2023-02-16T18:27:51;15.40;28.60
15574;DHT22;7888;46.748;8.102;2023-02-16T18:30:17;15.40;28.80
15574;DHT22;7888;46.748;8.102;2023-02-16T18:32:43;15.30;29.00
15574;DHT22;7888;46.748;8.102;2023-02-16T18:35:11;15.30;29.00
15574;DHT22;7888;46.748;8.102;2023-02-16T18:37:38;15.20;29.00
15574;DHT22;7888;46.748;8.102;2023-02-16T18:40:05;15.20;28.90
15574;DHT22;7888;46.748;8.102;2023-02-16T18:42:33;15.10;28.90
15574;DHT22;7888;46.748;8.102;2023-02-16T18:44:59;15.10;28.90
15574;DHT22;7888;46.748;8.102;2023-02-16T18:47:25;15.00;28.90
15574;DHT22;7888;46.748;8.102;2023-02-16T18:49:51;15.00;28.90
15574;DHT22;7888;46.748;8.102;2023-02-16T18:52:18;14.90;29.00
15574;DHT22;7888;46.748;8.102;2023-02-16T18:54:44;14.80;29.00
15574;DHT22;7888;46.748;8.102;2023-02-16T18:57:10;14.80;29.30
15574;DHT22;7888;46.748;8.102;2023-02-16T18:59:36;14.80;29.50
15574;DHT22;7888;46.748;8.102;2023-02-16T19:02:02;14.70;29.50
15574;DHT22;7888;46.748;8.102;2023-02-16T19:04:28;14.70;29.60
15574;DHT22;7888;46.748;8.102;2023-02-16T19:06:54;14.60;29.80
15574;DHT22;7888;46.748;8.102;2023-02-16T19:09:23;14.50;29.90
15574;DHT22;7888;46.748;8.102;2023-02-16T19:11:49;14.50;29.80
15574;DHT22;7888;46.748;8.102;2023-02-16T19:14:17;14.50;29.80
15574;DHT22;7888;46.748;8.102;2023-02-16T19:16:44;14.40;29.90
15574;DHT22;7888;46.748;8.102;2023-02-16T19:19:12;14.40;30.10
15574;DHT22;7888;46.748;8.102;2023-02-16T19:21:38;14.30;30.30
15574;DHT22;7888;46.748;8.102;2023-02-16T19:24:06;14.30;30.40
15574;DHT22;7888;46.748;8.102;2023-02-16T19:26:34;14.20;30.40
15574;DHT22;7888;46.748;8.102;2023-02-16T19:29:00;14.20;30.40
15574;DHT22;7888;46.748;8.102;2023-02-16T19:31:29;14.20;30.60
15574;DHT22;7888;46.748;8.102;2023-02-16T19:33:56;14.10;30.70
15574;DHT22;7888;46.748;8.102;2023-02-16T19:36:25;14.10;30.60